Time;durP1;ratioP1;P1;durP2;ratioP2;P2;SDS_P1;SDS_P2;PMS_P1;PMS_P2;Temp;Humidity;BMP_temperature;BMP_pressure;BME280_temperature;BME280_humidity;BME280_pressure;Samples;Min_cycle;Max_cycle;Signal;HPM_P1;HPM_P2
2022/12/15 00:39:42;;;;;;;23.60;11.80;;;-1.80;99.90;;;;;;5001460;28;20084;-83
2022/12/15 00:42:11;;;;;;;23.60;11.75;;;-1.80;99.90;;;;;;5015078;28;20025;-82
2022/12/15 00:44:37;;;;;;;19.73;10.95;;;-1.80;99.90;;;;;;4998209;28;20030;-82
2022/12/15 00:47:04;;;;;;;26.27;11.63;;;-1.80;99.90;;;;;;4982092;28;20033;-83
2022/12/15 01:20:18;;;;;;;23.88;11.60;;;-2.20;99.90;;;;;;5001342;28;20045;-84
2022/12/15 01:22:51;;;;;;;23.30;11.75;;;-2.10;99.90;;;;;;4985080;28;20112;-83
2022/12/15 01:25:19;;;;;;;27.40;12.98;;;-2.20;99.90;;;;;;5000540;28;20029;-83
2022/12/15 01:27:45;;;;;;;21.02;11.02;;;-2.20;99.90;;;;;;5009722;28;20085;-83
2022/12/15 01:30:13;;;;;;;21.90;11.85;;;-2.20;99.90;;;;;;5016341;28;20049;-83
2022/12/15 01:32:39;;;;;;;22.85;11.60;;;-2.20;99.90;;;;;;5031437;28;20018;-83
2022/12/15 01:35:05;;;;;;;25.17;11.18;;;-2.20;99.90;;;;;;5022376;28;20028;-83
2022/12/15 01:37:32;;;;;;;22.55;11.95;;;-2.20;99.90;;;;;;5013925;28;20048;-83
2022/12/15 01:42:41;;;;;;;23.40;11.82;;;-2.20;99.90;;;;;;5015417;28;20040;-84
2022/12/15 01:45:22;;;;;;;21.67;11.25;;;-2.20;99.90;;;;;;4997312;28;20025;-84
2022/12/15 01:47:48;;;;;;;;;;;-2.20;99.90;;;;;;5014165;28;20026;-84
2022/12/15 01:50:15;;;;;;;25.35;11.55;;;-2.30;99.90;;;;;;5013519;28;19928;-85
2022/12/15 01:52:41;;;;;;;21.55;11.30;;;-2.20;99.90;;;;;;4997226;28;20121;-84
2022/12/15 01:55:07;;;;;;;22.02;11.52;;;-2.20;99.90;;;;;;4996578;28;20100;-84
2022/12/15 01:57:35;;;;;;;21.63;11.07;;;-2.20;99.90;;;;;;5014549;28;20026;-84
2022/12/15 02:00:04;;;;;;;21.48;11.45;;;-2.30;99.90;;;;;;5013871;28;20026;-84
2022/12/15 02:02:31;;;;;;;25.00;11.07;;;-2.30;99.90;;;;;;5003065;28;20050;-84
2022/12/15 02:04:59;;;;;;;22.02;11.63;;;-2.30;99.90;;;;;;5013990;28;20029;-84
2022/12/15 02:07:25;;;;;;;22.75;11.48;;;-2.30;99.90;;;;;;5005255;28;20034;-84
2022/12/15 02:09:54;;;;;;;21.13;11.32;;;-2.30;99.90;;;;;;5014903;28;20112;-83
2022/12/15 02:12:46;;;;;;;20.98;10.18;;;-2.30;99.90;;;;;;5014839;28;20038;-84
2022/12/15 02:15:26;;;;;;;21.50;11.00;;;-2.30;99.90;;;;;;4998334;28;20054;-84
2022/12/15 02:18:17;;;;;;;23.52;11.15;;;-2.30;99.90;;;;;;5017571;28;20033;-84
2022/12/15 02:20:49;;;;;;;;;;;-2.30;99.90;;;;;;5001414;28;20026;-84
2022/12/15 02:23:48;;;;;;;22.80;10.85;;;-2.30;99.90;;;;;;5000954;28;20016;-84
2022/12/15 02:26:41;;;;;;;20.75;10.25;;;-2.30;99.90;;;;;;5017560;28;20029;-84
2022/12/15 02:29:49;;;;;;;19.38;10.45;;;-2.30;99.90;;;;;;5017313;28;20026;-84
2022/12/15 02:32:26;;;;;;;20.55;10.23;;;-2.30;99.90;;;;;;5007562;28;20038;-83
2022/12/15 02:34:58;;;;;;;23.58;11.02;;;-2.30;99.90;;;;;;5000757;28;20060;-83
2022/12/15 02:37:34;;;;;;;21.42;11.18;;;-2.40;99.90;;;;;;5000674;28;20037;-84
2022/12/15 02:40:00;;;;;;;20.90;10.35;;;-2.40;99.90;;;;;;5000193;28;20030;-85
2022/12/15 02:42:28;;;;;;;22.02;11.45;;;-2.30;99.90;;;;;;5017853;28;20065;-84
2022/12/15 02:45:05;;;;;;;18.70;10.63;;;-2.30;99.90;;;;;;5000980;28;20381;-83
2022/12/15 02:47:44;;;;;;;22.52;11.52;;;-2.30;99.90;;;;;;5000505;28;20441;-84
2022/12/15 02:50:10;;;;;;;22.15;11.32;;;-2.30;99.90;;;;;;5017424;28;20021;-83
2022/12/15 02:52:51;;;;;;;20.58;10.90;;;-2.30;99.90;;;;;;5017186;28;20532;-84
2022/12/15 02:55:28;;;;;;;21.88;10.60;;;-2.40;99.90;;;;;;5016275;28;20030;-84
2022/12/15 02:58:24;;;;;;;18.73;10.80;;;-2.40;99.90;;;;;;5017521;28;20029;-84
2022/12/15 03:00:56;;;;;;;19.25;10.10;;;-2.40;99.90;;;;;;5013571;28;20121;-83
2022/12/15 03:03:23;;;;;;;20.05;10.43;;;-2.40;99.90;;;;;;4980933;28;20486;-84
2022/12/15 03:05:53;;;;;;;18.80;9.82;;;-2.40;99.90;;;;;;4964740;28;20042;-84
2022/12/15 03:08:20;;;;;;;19.92;10.38;;;-2.40;99.90;;;;;;4980995;28;20026;-84
2022/12/15 03:10:52;;;;;;;21.33;10.05;;;-2.40;99.90;;;;;;4980945;28;20053;-85
2022/12/15 03:13:17;;;;;;;20.48;10.88;;;-2.40;99.90;;;;;;4979763;28;20022;-85
2022/12/15 03:15:43;;;;;;;19.77;10.18;;;-2.40;99.90;;;;;;4997687;28;20050;-83
2022/12/15 03:18:09;;;;;;;21.02;10.05;;;-2.50;99.90;;;;;;4980804;28;20042;-85
2022/12/15 03:20:35;;;;;;;19.95;10.15;;;-2.50;99.90;;;;;;4980605;28;20142;-84
2022/12/15 03:23:00;;;;;;;19.20;10.32;;;-2.50;99.90;;;;;;4980066;28;20026;-84
2022/12/15 03:25:26;;;;;;;21.38;10.70;;;-2.50;99.90;;;;;;4980028;28;20034;-85
2022/12/15 03:27:52;;;;;;;18.38;9.38;;;-2.50;99.90;;;;;;4979949;28;20032;-84
2022/12/15 03:30:18;;;;;;;17.95;9.73;;;-2.50;99.90;;;;;;4979769;28;20026;-83
2022/12/15 03:32:44;;;;;;;21.00;10.27;;;-2.50;99.90;;;;;;4980062;28;20487;-84
2022/12/15 03:35:11;;;;;;;18.48;10.32;;;-2.50;99.90;;;;;;4995816;28;20031;-83
2022/12/15 03:37:37;;;;;;;20.23;10.18;;;-2.50;99.90;;;;;;4979990;28;20053;-82
2022/12/15 03:40:04;;;;;;;21.20;11.18;;;-2.50;99.90;;;;;;4980149;28;20053;-83
2022/12/15 03:42:47;;;;;;;20.30;10.73;;;-2.50;99.90;;;;;;4979784;28;20266;-82
2022/12/15 03:45:20;;;;;;;21.13;10.27;;;-2.50;99.90;;;;;;4997505;28;20058;-82
2022/12/15 03:47:46;;;;;;;20.23;10.23;;;-2.50;99.90;;;;;;4997522;28;20030;-82
2022/12/15 03:50:15;;;;;;;22.52;11.80;;;-2.50;99.90;;;;;;4995877;28;20023;-83
2022/12/15 03:52:41;;;;;;;18.98;10.35;;;-2.50;99.90;;;;;;4979711;28;20022;-83
2022/12/15 03:55:08;;;;;;;21.90;10.75;;;-2.50;99.90;;;;;;4979186;28;20096;-84
2022/12/15 03:57:34;;;;;;;20.23;10.40;;;-2.40;99.90;;;;;;4979535;28;20125;-83
2022/12/15 04:00:00;;;;;;;19.88;10.57;;;-2.50;99.90;;;;;;4997377;28;20031;-83
2022/12/15 04:02:26;;;;;;;19.77;11.02;;;-2.50;99.90;;;;;;4979779;28;20034;-83
2022/12/15 04:04:51;;;;;;;21.33;11.30;;;-2.50;99.90;;;;;;4980116;28;20375;-83
2022/12/15 04:07:17;;;;;;;23.15;11.95;;;-2.50;99.90;;;;;;4979500;28;20124;-81
2022/12/15 04:09:42;;;;;;;20.30;10.68;;;-2.50;99.90;;;;;;4979538;28;20030;-83
2022/12/15 04:12:10;;;;;;;21.20;10.80;;;-2.50;99.90;;;;;;4979465;28;20030;-85
2022/12/15 04:14:41;;;;;;;23.70;11.18;;;-2.50;99.90;;;;;;4979742;28;20111;-83
2022/12/15 04:17:08;;;;;;;19.42;10.65;;;-2.60;99.90;;;;;;4995533;28;20141;-84
2022/12/15 04:22:18;;;;;;;21.33;10.65;;;-2.60;99.90;;;;;;4996021;28;20049;-83
2022/12/15 05:33:12;;;;;;;26.40;12.90;;;-2.90;99.90;;;;;;5002687;28;20052;-83
2022/12/15 05:35:38;;;;;;;22.58;12.18;;;-2.90;99.90;;;;;;4996611;28;20140;-83
2022/12/15 05:38:04;;;;;;;22.83;12.32;;;-2.90;99.90;;;;;;4981130;28;20060;-83
2022/12/15 05:40:30;;;;;;;24.02;12.50;;;-2.90;99.90;;;;;;5014361;28;20037;-83
2022/12/15 05:42:59;;;;;;;22.13;12.43;;;-2.90;99.90;;;;;;4997090;28;20386;-83
2022/12/15 05:45:25;;;;;;;25.80;13.23;;;-2.90;99.90;;;;;;5013926;28;20026;-83
2022/12/15 05:47:52;;;;;;;23.70;12.93;;;-2.90;99.90;;;;;;5013530;28;20026;-82
2022/12/15 05:50:18;;;;;;;23.92;13.48;;;-2.90;99.90;;;;;;5027872;28;20474;-82
2022/12/15 05:52:44;;;;;;;29.10;13.68;;;-3.00;99.90;;;;;;4996156;28;20029;-84
2022/12/15 05:55:10;;;;;;;28.70;14.23;;;-3.00;99.90;;;;;;5025360;28;20045;-83
2022/12/15 05:57:36;;;;;;;24.83;13.10;;;-3.00;99.90;;;;;;5013414;28;20089;-84
2022/12/15 06:00:03;;;;;;;24.55;13.77;;;-3.00;99.90;;;;;;4994593;28;20034;-83
2022/12/15 06:02:29;;;;;;;23.92;13.88;;;-3.00;99.90;;;;;;5014333;28;20093;-83
2022/12/15 06:04:54;;;;;;;25.80;13.55;;;-3.00;99.90;;;;;;4980373;28;20030;-83
2022/12/15 06:07:20;;;;;;;27.40;13.60;;;-3.00;99.90;;;;;;4965570;28;20038;-82
2022/12/15 06:09:45;;;;;;;26.45;15.38;;;-3.00;99.90;;;;;;4980763;28;20034;-83
2022/12/15 06:12:11;;;;;;;32.08;14.40;;;-3.00;99.90;;;;;;4993367;28;20031;-83
2022/12/15 06:14:37;;;;;;;25.17;13.20;;;-3.00;99.90;;;;;;4976524;28;20471;-82
2022/12/15 06:17:03;;;;;;;25.98;14.02;;;-3.00;99.90;;;;;;4980342;28;20077;-83
2022/12/15 06:19:28;;;;;;;25.83;12.77;;;-3.00;99.90;;;;;;5001783;28;20026;-83
2022/12/15 06:21:54;;;;;;;33.67;15.18;;;-3.00;99.90;;;;;;4997704;28;20089;-84
2022/12/15 06:24:20;;;;;;;28.33;14.65;;;-3.00;99.90;;;;;;4964903;28;20088;-83
2022/12/15 06:26:46;;;;;;;31.08;14.32;;;-3.00;99.90;;;;;;4997784;28;20036;-82
2022/12/15 06:29:13;;;;;;;27.83;15.07;;;-3.00;99.90;;;;;;4997444;28;20033;-83
2022/12/15 06:31:39;;;;;;;28.52;15.52;;;-3.00;99.90;;;;;;5014598;28;20025;-84
2022/12/15 06:34:12;;;;;;;27.98;14.60;;;-3.00;99.90;;;;;;4981392;28;20026;-84
2022/12/15 06:36:38;;;;;;;27.58;14.27;;;-3.00;99.90;;;;;;4997530;28;20034;-84
2022/12/15 06:39:07;;;;;;;29.92;15.10;;;-3.00;99.90;;;;;;4997393;28;20026;-83
2022/12/15 06:41:32;;;;;;;27.83;14.65;;;-3.00;99.90;;;;;;4997351;28;20030;-84
2022/12/15 06:43:59;;;;;;;29.95;14.85;;;-3.00;99.90;;;;;;4982855;28;20036;-84
2022/12/15 06:46:26;;;;;;;28.98;15.23;;;-3.00;99.90;;;;;;5001605;28;20029;-83
2022/12/15 06:48:53;;;;;;;27.02;14.52;;;-3.00;99.90;;;;;;5018074;28;20537;-82
2022/12/15 06:51:19;;;;;;;32.20;15.20;;;-3.00;99.90;;;;;;5013382;28;20018;-84
2022/12/15 06:53:47;;;;;;;28.88;14.32;;;-3.00;99.90;;;;;;4999778;28;20033;-83
2022/12/15 06:56:37;;;;;;;28.77;14.93;;;-3.00;99.90;;;;;;4986682;28;20049;-84
2022/12/15 06:59:05;;;;;;;25.20;13.80;;;-3.00;99.90;;;;;;5013549;28;20022;-84
2022/12/15 07:01:31;;;;;;;26.20;13.88;;;-3.00;99.90;;;;;;4996290;28;20030;-84
2022/12/15 07:03:58;;;;;;;26.30;14.13;;;-3.00;99.90;;;;;;5016499;28;20108;-83
2022/12/15 07:06:24;;;;;;;24.60;13.68;;;-3.00;99.90;;;;;;5017187;28;20022;-84
2022/12/15 07:08:55;;;;;;;30.45;14.80;;;-3.00;99.90;;;;;;5016745;28;20026;-84
2022/12/15 07:11:21;;;;;;;25.00;13.80;;;-3.00;99.90;;;;;;5000774;28;20037;-83
2022/12/15 07:13:51;;;;;;;26.77;13.75;;;-3.10;99.90;;;;;;5016936;28;20434;-83
2022/12/15 07:16:18;;;;;;;27.63;14.82;;;-3.10;99.90;;;;;;5000153;28;20046;-84
2022/12/15 07:18:44;;;;;;;33.80;15.95;;;-3.10;99.90;;;;;;5016889;28;20052;-84
2022/12/15 07:21:10;;;;;;;30.23;15.23;;;-3.10;99.90;;;;;;5017940;28;20034;-83
2022/12/15 07:23:36;;;;;;;28.88;14.45;;;-3.10;99.90;;;;;;5015516;28;20036;-84
2022/12/15 07:26:07;;;;;;;30.00;15.48;;;-3.10;99.90;;;;;;5016453;28;20030;-83
2022/12/15 07:28:33;;;;;;;;;;;-3.10;99.90;;;;;;5017025;28;20017;-84
2022/12/15 07:31:04;;;;;;;26.20;14.52;;;-3.10;99.90;;;;;;5000731;28;19935;-83
2022/12/15 07:33:32;;;;;;;27.48;15.27;;;-3.10;99.90;;;;;;5016456;28;20025;-83
2022/12/15 07:35:58;;;;;;;33.33;15.60;;;-3.20;99.90;;;;;;4999796;28;20038;-84
2022/12/15 07:38:23;;;;;;;31.30;14.80;;;-3.20;99.90;;;;;;5017175;28;20030;-84
2022/12/15 07:40:49;;;;;;;26.92;14.57;;;-3.20;99.90;;;;;;4999769;28;20029;-84
2022/12/15 07:43:15;;;;;;;31.40;14.30;;;-3.20;99.90;;;;;;5000363;28;20033;-84
2022/12/15 07:45:41;;;;;;;26.25;14.75;;;-3.20;99.90;;;;;;5016281;28;20121;-84
2022/12/15 07:48:06;;;;;;;29.75;15.07;;;-3.20;99.90;;;;;;5016128;28;20022;-84
2022/12/15 07:50:32;;;;;;;26.88;14.30;;;-3.20;99.90;;;;;;4999476;28;20026;-83
2022/12/15 07:52:58;;;;;;;28.90;14.63;;;-3.30;99.90;;;;;;4999741;28;20037;-83
2022/12/15 07:55:24;;;;;;;29.27;15.52;;;-3.20;99.90;;;;;;5016183;28;20030;-83
2022/12/15 07:57:50;;;;;;;28.00;14.18;;;-3.30;99.90;;;;;;4999270;28;20065;-83
2022/12/15 08:00:16;;;;;;;28.05;14.73;;;-3.30;99.90;;;;;;5000065;28;20072;-84
2022/12/15 08:02:42;;;;;;;28.23;14.73;;;-3.30;99.90;;;;;;5016050;28;20105;-84
2022/12/15 08:05:09;;;;;;;27.23;14.65;;;-3.30;99.90;;;;;;4999418;28;20129;-84
2022/12/15 08:07:34;;;;;;;24.67;14.20;;;-3.30;99.90;;;;;;5015930;28;20032;-83
2022/12/15 08:10:00;;;;;;;26.13;14.57;;;-3.30;99.90;;;;;;4999196;28;20033;-82
2022/12/15 08:12:27;;;;;;;29.33;15.93;;;-3.30;99.90;;;;;;5015392;28;20080;-82
2022/12/15 08:14:53;;;;;;;28.63;15.38;;;-3.30;99.90;;;;;;4999305;28;20152;-82
2022/12/15 08:17:19;;;;;;;31.05;14.82;;;-3.30;99.90;;;;;;5015179;28;20510;-82
2022/12/15 08:19:47;;;;;;;32.33;16.52;;;-3.30;99.90;;;;;;4998814;28;20536;-83
2022/12/15 08:22:14;;;;;;;29.77;16.17;;;-3.30;99.90;;;;;;5014477;28;20421;-83
2022/12/15 08:24:40;;;;;;;29.65;15.80;;;-3.40;99.90;;;;;;4994354;28;20121;-83
2022/12/15 08:27:07;;;;;;;30.52;15.55;;;-3.30;99.90;;;;;;5015024;28;20132;-82
2022/12/15 08:29:33;;;;;;;32.13;16.05;;;-3.30;99.90;;;;;;5014708;28;20022;-83
2022/12/15 08:31:59;;;;;;;31.10;16.38;;;-3.30;99.90;;;;;;4998180;28;20128;-83
2022/12/15 08:34:24;;;;;;;28.70;15.50;;;-3.20;99.90;;;;;;4982374;28;20033;-85
2022/12/15 08:36:50;;;;;;;32.33;17.05;;;-3.30;99.90;;;;;;4978941;28;20096;-83
2022/12/15 08:39:16;;;;;;;36.05;17.25;;;-3.30;99.90;;;;;;4997891;28;20030;-83
2022/12/15 08:41:42;;;;;;;33.03;17.00;;;-3.20;99.90;;;;;;4979112;28;20335;-84
2022/12/15 08:44:08;;;;;;;32.05;16.65;;;-3.20;99.90;;;;;;4995235;28;20041;-82
2022/12/15 08:46:34;;;;;;;32.47;17.75;;;-3.20;99.90;;;;;;4978913;28;20038;-82
2022/12/15 08:49:02;;;;;;;30.48;17.10;;;-3.20;99.90;;;;;;4978643;28;20041;-84
2022/12/15 08:51:29;;;;;;;38.83;19.75;;;-3.20;99.90;;;;;;4979317;28;20031;-83
2022/12/15 08:53:56;;;;;;;33.67;18.00;;;-3.10;99.90;;;;;;4979027;28;20042;-83
2022/12/15 08:56:23;;;;;;;32.78;16.77;;;-3.10;99.90;;;;;;4978817;28;20035;-83
2022/12/15 08:58:54;;;;;;;34.50;17.15;;;-3.10;99.90;;;;;;4978755;28;20479;-84
2022/12/15 09:01:21;;;;;;;36.42;19.00;;;-3.10;99.90;;;;;;4996023;28;20027;-83
2022/12/15 09:03:48;;;;;;;35.53;18.23;;;-3.10;99.90;;;;;;4996457;28;20545;-83
2022/12/15 09:06:20;;;;;;;31.33;16.85;;;-3.10;99.90;;;;;;4991714;28;20052;-86
2022/12/15 09:08:46;;;;;;;31.73;17.70;;;-3.00;99.90;;;;;;5014508;28;20037;-85
2022/12/15 09:11:11;;;;;;;37.17;18.55;;;-3.00;99.90;;;;;;4996156;28;20026;-85
2022/12/15 09:13:38;;;;;;;39.30;19.23;;;-3.00;99.90;;;;;;4979035;28;20493;-84
2022/12/15 09:16:12;;;;;;;33.75;18.63;;;-3.00;99.90;;;;;;4997908;28;20139;-83
2022/12/15 09:18:40;;;;;;;34.70;18.92;;;-3.00;99.90;;;;;;4987289;28;20466;-82
2022/12/15 09:21:06;;;;;;;35.88;17.83;;;-3.00;99.90;;;;;;5013932;28;20034;-83
2022/12/15 09:23:33;;;;;;;43.22;21.08;;;-2.90;99.90;;;;;;5013567;28;20049;-83
2022/12/15 09:26:05;;;;;;;40.03;21.33;;;-2.90;99.90;;;;;;4979232;28;20030;-84
2022/12/15 09:28:31;;;;;;;41.83;20.67;;;-2.90;99.90;;;;;;4995907;28;20034;-83
2022/12/15 09:31:07;;;;;;;38.80;21.65;;;-2.90;99.90;;;;;;4997879;28;20022;-83
2022/12/15 09:33:33;;;;;;;39.30;19.50;;;-2.80;99.90;;;;;;5014713;28;20049;-84
2022/12/15 09:35:59;;;;;;;37.20;20.23;;;-2.80;99.90;;;;;;5013315;28;20041;-85
2022/12/15 09:38:25;;;;;;;36.90;20.27;;;-2.70;99.90;;;;;;4992662;28;20394;-83
2022/12/15 09:40:51;;;;;;;38.35;19.88;;;-2.70;99.90;;;;;;4997313;28;20026;-84
2022/12/15 09:43:22;;;;;;;34.95;19.33;;;-2.60;99.90;;;;;;4997870;28;20072;-83
2022/12/15 09:46:05;;;;;;;;;;;-2.60;99.90;;;;;;5014079;28;20037;-85
2022/12/15 09:48:39;;;;;;;36.40;19.45;;;-2.50;99.90;;;;;;5014443;28;19910;-84
2022/12/15 09:51:11;;;;;;;38.83;20.55;;;-2.40;99.90;;;;;;5013896;28;20022;-84
2022/12/15 09:53:36;;;;;;;36.97;18.60;;;-2.40;99.90;;;;;;5013830;28;20026;-83
2022/12/15 09:56:08;;;;;;;40.72;20.65;;;-2.30;99.90;;;;;;4997209;28;20045;-85
2022/12/15 09:58:56;;;;;;;40.40;19.52;;;-2.30;99.90;;;;;;5013579;28;20022;-83
2022/12/15 10:01:39;;;;;;;42.58;20.17;;;-2.20;99.90;;;;;;5013947;28;20026;-84
2022/12/15 10:04:34;;;;;;;39.35;21.92;;;-2.20;99.90;;;;;;4992363;28;20025;-84
2022/12/15 10:07:34;;;;;;;37.15;21.10;;;-2.10;99.90;;;;;;4998426;28;20045;-84
2022/12/15 10:10:16;;;;;;;40.13;19.92;;;-2.00;99.90;;;;;;4991685;28;20120;-87
2022/12/15 10:12:44;;;;;;;34.40;20.55;;;-2.00;99.90;;;;;;5013627;28;20054;-85
2022/12/15 10:15:21;;;;;;;40.35;20.75;;;-2.00;99.90;;;;;;4996906;28;20041;-85
2022/12/15 10:17:48;;;;;;;39.10;21.33;;;-1.90;99.90;;;;;;5014347;28;20046;-86
2022/12/15 10:20:22;;;;;;;36.25;20.65;;;-1.90;99.90;;;;;;5013857;28;20022;-85
2022/12/15 10:22:48;;;;;;;40.55;21.63;;;-1.80;99.90;;;;;;5014422;28;20029;-86
2022/12/15 10:25:20;;;;;;;40.55;21.73;;;-1.70;99.90;;;;;;4971283;28;20026;-86
2022/12/15 10:28:15;;;;;;;38.38;21.38;;;-1.70;99.90;;;;;;4977984;28;20041;-85
2022/12/15 10:30:55;;;;;;;42.00;22.08;;;-1.70;99.90;;;;;;4995492;28;20061;-85
2022/12/15 10:33:41;;;;;;;35.85;20.67;;;-1.60;99.90;;;;;;4994130;28;20029;-86
2022/12/15 10:36:13;;;;;;;37.55;20.92;;;-1.50;99.90;;;;;;4978126;28;20026;-85
2022/12/15 10:38:46;;;;;;;41.28;20.40;;;-1.50;99.90;;;;;;4999216;28;20459;-85
2022/12/15 10:41:20;;;;;;;34.33;19.42;;;-1.40;99.90;;;;;;4999861;28;20037;-86
2022/12/15 10:43:48;;;;;;;37.60;21.02;;;-1.30;99.90;;;;;;4998186;28;20019;-86
2022/12/15 10:46:20;;;;;;;40.55;22.25;;;-1.20;99.90;;;;;;4998925;28;20046;-85
2022/12/15 10:48:50;;;;;;;47.88;20.95;;;-1.20;99.90;;;;;;4998127;28;20061;-84
2022/12/15 10:51:42;;;;;;;34.85;18.40;;;-1.10;99.90;;;;;;4998982;28;20133;-85
2022/12/15 10:54:11;;;;;;;37.40;20.42;;;-1.00;99.90;;;;;;4997569;28;20026;-86
2022/12/15 10:56:53;;;;;;;31.92;20.13;;;-1.00;99.90;;;;;;4998826;28;20022;-86
2022/12/15 10:59:22;;;;;;;36.03;20.45;;;-1.00;99.90;;;;;;4997860;28;20049;-86
2022/12/15 11:01:49;;;;;;;37.08;21.48;;;-0.90;99.90;;;;;;4997786;28;20022;-86
2022/12/15 11:04:31;;;;;;;39.65;21.25;;;-0.80;99.90;;;;;;4981805;28;20065;-86
2022/12/15 11:06:59;;;;;;;40.78;22.20;;;-0.80;99.90;;;;;;4981245;28;20038;-86
2022/12/15 11:09:38;;;;;;;38.08;21.52;;;-0.70;99.90;;;;;;4981150;28;20451;-86
2022/12/15 11:15:21;;;;;;;38.38;21.27;;;-0.50;99.90;;;;;;4998366;28;20505;-85
2022/12/15 11:18:05;;;;;;;38.58;22.13;;;-0.40;99.90;;;;;;4998831;28;20054;-85
2022/12/15 11:20:38;;;;;;;38.25;22.55;;;-0.30;99.90;;;;;;4997601;28;20030;-86
2022/12/15 11:23:31;;;;;;;38.22;20.65;;;-0.20;99.90;;;;;;4981160;28;20105;-85
2022/12/15 11:26:49;;;;;;;35.42;19.33;;;-0.10;99.90;;;;;;5007770;28;20027;-91
2022/12/15 11:29:36;;;;;;;33.13;21.50;;;0.00;99.90;;;;;;4982632;28;20093;-86
2022/12/15 11:32:02;;;;;;;38.20;21.90;;;0.10;99.90;;;;;;4999350;28;20028;-86
2022/12/15 11:34:41;;;;;;;34.45;20.95;;;0.20;99.90;;;;;;4981076;28;20035;-85
2022/12/15 11:37:37;;;;;;;33.15;21.05;;;0.20;99.90;;;;;;4981288;28;20034;-86
2022/12/15 11:40:26;;;;;;;35.83;19.90;;;0.40;99.90;;;;;;4981397;28;20117;-86
2022/12/15 11:42:52;;;;;;;38.58;21.80;;;0.40;99.90;;;;;;4998179;28;20037;-86
2022/12/15 11:45:43;;;;;;;35.85;20.35;;;0.50;99.90;;;;;;4997260;28;20022;-87
2022/12/15 11:48:13;;;;;;;37.88;22.13;;;0.60;99.90;;;;;;4998875;28;20077;-87
2022/12/15 11:50:57;;;;;;;39.10;22.30;;;0.60;99.90;;;;;;4985146;28;20027;-87
2022/12/15 11:54:05;;;;;;;39.08;20.88;;;0.70;99.90;;;;;;4986306;28;20039;-86
2022/12/15 11:56:54;;;;;;;34.03;22.05;;;0.80;99.90;;;;;;5012950;28;20085;-86
2022/12/15 11:59:35;;;;;;;36.28;20.48;;;0.90;99.90;;;;;;4999590;28;20038;-87
2022/12/15 12:02:23;;;;;;;29.90;20.00;;;1.00;99.90;;;;;;5017323;28;20113;-91
2022/12/15 12:05:26;;;;;;;40.35;21.83;;;1.10;99.90;;;;;;5005959;28;20034;-88
2022/12/15 12:08:03;;;;;;;36.65;21.15;;;1.20;99.90;;;;;;5021272;28;20036;-88
2022/12/15 12:10:38;;;;;;;34.03;20.45;;;1.20;99.90;;;;;;5017194;28;20030;-88
2022/12/15 12:13:31;;;;;;;40.38;21.60;;;1.30;99.90;;;;;;4996368;28;20022;-87
2022/12/15 12:16:00;;;;;;;35.40;21.00;;;1.30;99.90;;;;;;5021665;28;20124;-89
2022/12/15 12:18:51;;;;;;;38.45;21.67;;;1.40;99.90;;;;;;5012707;28;20371;-89
2022/12/15 12:21:30;;;;;;;37.33;20.80;;;1.50;99.90;;;;;;4989674;28;20165;-88
2022/12/15 12:24:00;;;;;;;30.83;19.95;;;1.50;99.90;;;;;;5000531;28;20382;-89
2022/12/15 12:27:06;;;;;;;31.48;19.08;;;1.60;99.90;;;;;;5000067;28;20037;-89
2022/12/15 12:30:11;;;;;;;32.45;19.90;;;1.60;99.90;;;;;;4999614;28;20022;-89
2022/12/15 12:33:08;;;;;;;33.50;20.08;;;1.70;99.90;;;;;;4981902;28;20025;-88
2022/12/15 12:36:03;;;;;;;33.05;19.65;;;1.60;99.90;;;;;;5012308;28;20029;-88
2022/12/15 12:38:45;;;;;;;;;;;;;;;;;;;;;
2022/12/15 12:41:23;;;;;;;33.88;20.75;;;1.70;99.90;;;;;;5002721;28;20006;-87
2022/12/15 12:43:59;;;;;;;29.90;19.25;;;1.70;99.90;;;;;;4999719;28;20474;-87
2022/12/15 12:46:27;;;;;;;32.75;19.58;;;1.80;99.90;;;;;;4997951;28;20029;-88
2022/12/15 12:49:12;;;;;;;30.30;19.63;;;1.80;99.90;;;;;;4998725;28;20018;-87
2022/12/15 12:51:54;;;;;;;37.72;20.52;;;1.80;99.90;;;;;;4999075;28;20057;-87
2022/12/15 12:54:35;;;;;;;32.75;19.50;;;1.90;99.90;;;;;;4998908;28;20052;-87
2022/12/15 12:57:21;;;;;;;;;;;2.00;99.90;;;;;;4999150;28;20044;-87
2022/12/15 13:00:05;;;;;;;41.72;20.45;;;2.10;99.90;;;;;;4994115;28;19916;-87
2022/12/15 13:02:36;;;;;;;33.95;19.25;;;2.10;99.90;;;;;;4999000;28;20026;-87
2022/12/15 13:08:21;;;;;;;33.70;20.33;;;2.10;99.90;;;;;;5016826;28;20280;-87
2022/12/15 13:10:47;;;;;;;31.05;19.02;;;2.10;99.90;;;;;;5010379;28;20038;-87
2022/12/15 13:13:28;;;;;;;37.33;21.60;;;2.10;99.90;;;;;;4998187;28;20359;-88
2022/12/15 13:16:24;;;;;;;35.83;20.30;;;2.10;99.90;;;;;;4998187;28;20077;-87
2022/12/15 13:19:07;;;;;;;33.65;21.27;;;2.10;99.90;;;;;;4997681;28;20041;-87
2022/12/15 13:21:42;;;;;;;37.22;20.23;;;2.20;99.90;;;;;;4982286;28;20033;-87
2022/12/15 13:24:58;;;;;;;34.53;21.00;;;2.20;99.90;;;;;;4998651;28;20073;-87
2022/12/15 13:27:33;;;;;;;34.90;20.50;;;2.20;99.90;;;;;;5006802;28;20034;-87
2022/12/15 13:30:15;;;;;;;35.90;20.05;;;2.20;99.90;;;;;;4999025;28;20449;-87
2022/12/15 13:32:55;;;;;;;33.28;20.70;;;2.30;99.90;;;;;;4986654;28;20144;-87
2022/12/15 13:35:26;;;;;;;33.60;20.38;;;2.30;99.90;;;;;;5000414;28;20022;-87
2022/12/15 13:37:57;;;;;;;33.00;20.13;;;2.30;99.90;;;;;;4998488;28;20041;-88
2022/12/15 13:40:35;;;;;;;33.22;20.50;;;2.40;99.90;;;;;;4983212;28;20038;-88
2022/12/15 13:43:04;;;;;;;35.85;21.30;;;2.40;99.90;;;;;;4998656;28;20080;-87
2022/12/15 13:45:44;;;;;;;37.90;22.33;;;2.50;99.90;;;;;;5015694;28;20097;-89
2022/12/15 13:48:26;;;;;;;35.90;20.92;;;2.50;99.90;;;;;;5017533;28;20037;-88
2022/12/15 13:51:08;;;;;;;35.25;20.75;;;2.50;99.90;;;;;;5000202;28;20026;-87
2022/12/15 13:54:11;;;;;;;35.65;21.60;;;2.60;99.90;;;;;;4997894;28;20493;-87
2022/12/15 13:56:52;;;;;;;39.17;21.13;;;2.60;99.90;;;;;;4986600;28;20034;-88
2022/12/15 13:59:47;;;;;;;37.83;21.23;;;2.60;99.90;;;;;;5004018;28;20029;-89
2022/12/15 14:02:34;;;;;;;35.05;20.63;;;2.70;99.90;;;;;;5000595;28;20026;-88
2022/12/15 14:05:22;;;;;;;33.90;20.83;;;2.70;99.90;;;;;;4998781;28;20382;-88
2022/12/15 14:08:13;;;;;;;36.80;22.35;;;2.70;99.90;;;;;;4998731;28;20429;-88
2022/12/15 14:10:41;;;;;;;36.40;20.83;;;2.70;99.90;;;;;;5015450;28;20026;-88
2022/12/15 14:13:32;;;;;;;35.53;19.92;;;2.70;99.90;;;;;;5019511;28;20056;-88
2022/12/15 14:16:06;;;;;;;35.90;19.77;;;2.70;99.90;;;;;;5002655;28;20121;-88
2022/12/15 14:18:40;;;;;;;37.40;20.25;;;2.70;99.90;;;;;;5002071;28;20466;-87
2022/12/15 14:21:18;;;;;;;36.28;21.60;;;2.70;99.90;;;;;;5002353;28;20022;-88
2022/12/15 14:23:45;;;;;;;32.55;19.65;;;2.70;99.90;;;;;;5003248;28;20026;-88
2022/12/15 14:26:13;;;;;;;31.90;19.33;;;2.70;99.90;;;;;;5006463;28;20034;-88
2022/12/15 14:28:49;;;;;;;36.75;19.75;;;2.60;99.90;;;;;;5023753;28;20018;-87
2022/12/15 14:31:26;;;;;;;41.63;23.17;;;2.70;99.90;;;;;;5005073;28;20033;-87
2022/12/15 14:34:14;;;;;;;41.10;22.38;;;2.70;99.90;;;;;;4988576;28;20120;-88
2022/12/15 14:36:44;;;;;;;36.83;22.10;;;2.70;99.90;;;;;;5006295;28;20048;-88
2022/12/15 14:39:46;;;;;;;34.13;23.08;;;2.70;99.90;;;;;;5008870;28;20029;-88
2022/12/15 14:42:39;;;;;;;38.50;23.27;;;2.70;99.90;;;;;;5009323;28;20029;-88
2022/12/15 14:45:14;;;;;;;34.00;20.20;;;2.70;99.90;;;;;;5006698;28;20032;-88
2022/12/15 14:47:54;;;;;;;34.05;20.77;;;2.70;99.90;;;;;;5002374;28;20034;-88
2022/12/15 14:50:29;;;;;;;36.50;22.00;;;2.70;99.90;;;;;;4987358;28;20030;-89
2022/12/15 14:53:25;;;;;;;;;;;;;;;;;;;;;
2022/12/15 14:56:10;;;;;;;35.08;21.63;;;2.70;99.90;;;;;;5019701;28;20032;-88
2022/12/15 14:59:04;;;;;;;;;;;;;;;;;;;;;
2022/12/15 15:01:40;;;;;;;32.35;19.95;;;2.70;99.90;;;;;;4999090;28;20034;-86
2022/12/15 15:04:27;;;;;;;32.03;20.20;;;2.70;99.90;;;;;;4981700;28;20027;-86
2022/12/15 15:06:58;;;;;;;36.38;21.02;;;2.70;99.90;;;;;;4981457;28;20035;-86
2022/12/15 15:09:48;;;;;;;;;;;;;;;;;;;;;
2022/12/15 15:12:27;;;;;;;31.90;20.33;;;2.60;99.90;;;;;;5006228;28;20269;-87
2022/12/15 15:15:24;;;;;;;32.53;19.85;;;2.50;99.90;;;;;;5002103;28;20026;-86
2022/12/15 15:18:01;;;;;;;31.73;20.40;;;2.50;99.90;;;;;;4999349;28;20150;-88
2022/12/15 15:20:51;;;;;;;32.75;21.02;;;2.40;99.90;;;;;;4982163;28;20052;-88
2022/12/15 15:24:11;;;;;;;;;;;;;;;;;;;;;
2022/12/15 15:26:32;;;;;;;33.25;20.00;;;2.40;99.90;;;;;;4995555;28;20034;-87
2022/12/15 15:29:07;;;;;;;33.58;20.52;;;2.40;99.90;;;;;;4982021;28;20022;-87
2022/12/15 15:31:51;;;;;;;;;;;;;;;;;;;;;
2022/12/15 15:34:20;;;;;;;36.40;22.02;;;2.40;99.90;;;;;;5003292;28;20121;-87
2022/12/15 15:36:50;;;;;;;35.80;22.40;;;2.40;99.90;;;;;;4987706;28;20030;-87
2022/12/15 15:39:18;;;;;;;33.70;21.92;;;2.40;99.90;;;;;;4973481;28;20034;-87
2022/12/15 15:41:44;;;;;;;31.75;20.55;;;2.40;99.90;;;;;;4983968;28;20054;-87